Time;durP1;ratioP1;P1;durP2;ratioP2;P2;SDS_P1;SDS_P2;PMS_P1;PMS_P2;Temp;Humidity;BMP_temperature;BMP_pressure;BME280_temperature;BME280_humidity;BME280_pressure;Samples;Min_cycle;Max_cycle;Signal;HPM_P1;HPM_P2
2022/04/22 00:00:22;;;;;;;15.30;11.47;;;8.30;68.60;;;;;;4979450;28;20455;-85
2022/04/22 00:02:50;;;;;;;16.33;12.60;;;8.30;70.50;;;;;;4979424;28;20455;-84
2022/04/22 00:05:17;;;;;;;13.67;12.23;;;8.20;71.40;;;;;;4979563;28;20459;-84
2022/04/22 00:07:45;;;;;;;16.47;14.57;;;8.10;72.60;;;;;;4979161;28;20479;-84
2022/04/22 00:10:11;;;;;;;15.57;12.90;;;8.00;73.80;;;;;;4977806;28;20550;-84
2022/04/22 00:12:38;;;;;;;16.97;15.40;;;8.00;76.10;;;;;;4979040;28;20967;-84
2022/04/22 00:15:07;;;;;;;17.97;16.27;;;8.00;76.20;;;;;;4979151;28;20455;-84
2022/04/22 00:17:33;;;;;;;20.30;18.70;;;7.90;76.10;;;;;;4978649;28;20479;-84
2022/04/22 00:20:01;;;;;;;26.83;24.63;;;7.80;78.20;;;;;;4978200;28;20459;-83
2022/04/22 00:22:28;;;;;;;37.40;35.07;;;7.70;80.40;;;;;;4979294;28;20455;-84
2022/04/22 00:24:55;;;;;;;39.40;37.00;;;7.60;82.20;;;;;;4979323;28;20483;-84
2022/04/22 00:27:22;;;;;;;50.50;47.50;;;7.60;82.60;;;;;;4979273;28;20480;-84
2022/04/22 00:29:48;;;;;;;51.47;48.67;;;7.50;85.00;;;;;;4978489;28;20454;-84
2022/04/22 00:32:15;;;;;;;95.47;88.93;;;7.30;85.30;;;;;;4978982;28;20459;-84
2022/04/22 00:34:42;;;;;;;108.03;103.73;;;7.20;88.00;;;;;;4978990;28;20952;-84
2022/04/22 00:37:10;;;;;;;128.40;123.13;;;7.00;90.20;;;;;;4978707;28;20471;-84
2022/04/22 00:39:37;;;;;;;173.40;167.10;;;7.00;90.50;;;;;;4978423;28;20459;-82
2022/04/22 00:42:10;;;;;;;163.90;157.43;;;6.80;92.10;;;;;;4978573;28;20463;-84
2022/04/22 00:44:37;;;;;;;305.73;293.43;;;6.80;92.50;;;;;;4979085;28;20475;-83
2022/04/22 00:47:05;;;;;;;367.70;352.80;;;6.90;97.20;;;;;;4978939;28;20486;-85
2022/04/22 00:49:31;;;;;;;347.27;333.23;;;6.80;99.90;;;;;;4978141;28;20522;-84
2022/04/22 00:51:58;;;;;;;241.30;231.77;;;6.70;99.90;;;;;;4979238;28;20489;-85
2022/04/22 00:54:26;;;;;;;358.80;343.93;;;6.60;99.90;;;;;;4978474;28;20458;-84
2022/04/22 00:56:54;;;;;;;351.63;336.73;;;6.70;99.90;;;;;;4978806;28;20479;-84
2022/04/22 00:59:21;;;;;;;357.00;342.00;;;6.70;99.90;;;;;;4977955;28;20459;-83
2022/04/22 01:01:48;;;;;;;344.97;330.70;;;6.80;99.90;;;;;;4978890;28;20458;-84
2022/04/22 01:09:51;;;;;;;415.30;398.70;;;6.80;99.90;;;;;;4977198;28;20443;-85
2022/04/22 01:12:19;;;;;;;387.13;372.37;;;6.80;99.90;;;;;;4978979;28;20478;-84
2022/04/22 01:14:46;;;;;;;351.70;339.23;;;7.00;99.90;;;;;;4978375;28;20454;-83
2022/04/22 01:17:13;;;;;;;376.83;363.47;;;6.60;99.90;;;;;;4976668;28;20479;-83
2022/04/22 01:19:41;;;;;;;350.97;338.80;;;6.60;99.90;;;;;;4977631;28;20463;-83
2022/04/22 01:22:09;;;;;;;396.90;382.07;;;6.40;99.90;;;;;;4978569;28;20838;-84
2022/04/22 01:24:37;;;;;;;427.63;410.60;;;6.30;99.90;;;;;;4978175;28;20482;-84
2022/04/22 01:27:05;;;;;;;631.63;601.43;;;6.10;99.90;;;;;;4978015;28;20475;-84
2022/04/22 01:29:32;;;;;;;596.70;566.87;;;6.30;99.90;;;;;;4977672;28;20459;-83
2022/04/22 01:32:00;;;;;;;728.87;686.30;;;6.20;99.90;;;;;;4978006;28;20462;-85
2022/04/22 01:34:27;;;;;;;765.00;719.73;;;6.20;99.90;;;;;;4978048;28;20479;-84
2022/04/22 01:36:53;;;;;;;768.83;721.87;;;6.20;99.90;;;;;;4977992;28;20471;-84
2022/04/22 01:39:21;;;;;;;799.87;749.10;;;6.30;99.90;;;;;;4977521;28;20466;-84
2022/04/22 01:41:48;;;;;;;806.83;754.87;;;6.40;99.90;;;;;;4978106;28;20952;-84
2022/04/22 01:44:16;;;;;;;822.27;768.57;;;6.40;99.90;;;;;;4977539;28;20451;-85
2022/04/22 01:46:43;;;;;;;800.20;747.13;;;6.40;99.90;;;;;;4977461;28;20581;-84
2022/04/22 01:49:09;;;;;;;806.57;754.50;;;6.40;99.90;;;;;;4976820;28;20462;-83
2022/04/22 01:51:36;;;;;;;785.47;733.67;;;6.50;99.90;;;;;;4978022;28;20470;-84
2022/04/22 01:54:03;;;;;;;786.40;735.30;;;6.60;99.90;;;;;;4977598;28;20490;-84
2022/04/22 01:56:31;;;;;;;791.30;740.03;;;6.70;99.90;;;;;;4977472;28;20489;-84
2022/04/22 01:58:58;;;;;;;813.77;761.27;;;6.70;99.90;;;;;;4976878;28;20458;-84
2022/04/22 02:01:25;;;;;;;800.80;751.33;;;6.60;99.90;;;;;;4977845;28;20459;-83
2022/04/22 02:03:51;;;;;;;801.97;753.90;;;6.50;99.90;;;;;;4977560;28;20458;-83
2022/04/22 02:06:18;;;;;;;826.63;776.23;;;6.40;99.90;;;;;;4977762;28;20486;-84
2022/04/22 02:08:45;;;;;;;840.23;789.97;;;6.20;99.90;;;;;;4976573;28;20454;-84
2022/04/22 02:11:13;;;;;;;858.30;801.80;;;6.20;99.90;;;;;;4978315;28;20462;-83
2022/04/22 02:13:41;;;;;;;847.40;790.73;;;6.30;99.90;;;;;;4979051;28;20558;-84
2022/04/22 02:16:08;;;;;;;858.17;799.57;;;6.30;99.90;;;;;;4976659;28;20945;-84
2022/04/22 02:18:36;;;;;;;863.77;803.60;;;6.40;99.90;;;;;;4976835;28;20501;-85
2022/04/22 02:21:05;;;;;;;879.80;817.70;;;6.10;99.90;;;;;;4977279;28;20828;-84
2022/04/22 02:23:32;;;;;;;864.87;804.67;;;6.20;99.90;;;;;;4977171;28;21078;-84
2022/04/22 02:25:58;;;;;;;860.43;799.10;;;6.20;99.90;;;;;;4977087;28;20475;-84
2022/04/22 02:28:33;;;;;;;834.53;775.70;;;6.20;99.90;;;;;;4975922;28;20557;-83
2022/04/22 02:31:05;;;;;;;819.10;762.90;;;6.40;99.90;;;;;;4976852;28;20526;-84
2022/04/22 02:33:33;;;;;;;842.67;786.33;;;6.40;99.90;;;;;;4975678;28;20959;-84
2022/04/22 02:36:00;;;;;;;848.30;790.17;;;6.40;99.90;;;;;;4976397;28;20482;-84
2022/04/22 02:38:28;;;;;;;865.17;806.80;;;6.30;99.90;;;;;;4976408;28;20459;-83
2022/04/22 02:46:26;;;;;;;836.33;778.83;;;6.20;99.90;;;;;;4998797;23;20626;-84
2022/04/22 02:48:53;;;;;;;858.63;797.40;;;6.20;99.90;;;;;;4980357;28;20446;-84
2022/04/22 02:51:19;;;;;;;855.00;795.27;;;6.20;99.90;;;;;;4981109;28;20454;-83
2022/04/22 02:53:46;;;;;;;864.83;803.30;;;6.10;99.90;;;;;;4980931;28;20451;-84
2022/04/22 02:56:13;;;;;;;869.93;807.20;;;6.10;99.90;;;;;;4981220;28;20517;-84
2022/04/22 02:58:43;;;;;;;845.67;781.57;;;6.00;99.90;;;;;;4980516;28;20483;-84
2022/04/22 03:01:10;;;;;;;844.90;779.97;;;6.00;99.90;;;;;;4981027;28;20459;-83
2022/04/22 03:03:38;;;;;;;828.57;768.47;;;6.10;99.90;;;;;;4981385;28;20455;-83
2022/04/22 03:06:05;;;;;;;838.37;781.17;;;6.30;99.90;;;;;;4980301;28;20490;-83
2022/04/22 03:08:32;;;;;;;833.87;778.97;;;6.30;99.90;;;;;;4978863;28;20960;-83
2022/04/22 03:10:59;;;;;;;854.07;798.87;;;6.30;99.90;;;;;;4980664;28;20454;-83
2022/04/22 03:13:25;;;;;;;863.17;806.47;;;6.20;99.90;;;;;;4980400;28;20502;-83
2022/04/22 03:15:52;;;;;;;806.63;750.53;;;6.20;99.90;;;;;;4981168;28;20482;-84
2022/04/22 03:18:19;;;;;;;791.97;735.37;;;6.10;99.90;;;;;;4979634;28;20458;-83
2022/04/22 03:20:47;;;;;;;789.63;733.90;;;6.20;99.90;;;;;;4979552;28;20506;-83
2022/04/22 03:23:14;;;;;;;778.73;726.53;;;6.20;99.90;;;;;;4979657;28;20485;-83
2022/04/22 03:25:41;;;;;;;772.00;722.30;;;6.30;99.90;;;;;;4980349;28;20459;-82
2022/04/22 03:28:08;;;;;;;756.67;709.97;;;6.50;99.90;;;;;;4980081;28;20517;-84
2022/04/22 03:30:37;;;;;;;737.87;693.60;;;6.50;99.90;;;;;;4980661;28;20470;-84
2022/04/22 03:33:04;;;;;;;737.87;695.17;;;6.60;99.90;;;;;;4979942;28;20456;-83
2022/04/22 03:35:31;;;;;;;715.93;675.20;;;6.80;99.90;;;;;;4978905;28;20479;-83
2022/04/22 03:37:59;;;;;;;723.50;682.50;;;6.80;99.90;;;;;;4979316;28;20475;-83
2022/04/22 03:40:26;;;;;;;735.67;694.90;;;6.80;99.90;;;;;;4978403;28;20473;-83
2022/04/22 03:42:53;;;;;;;703.47;666.17;;;6.90;99.90;;;;;;4978620;28;20486;-83
2022/04/22 03:45:21;;;;;;;723.77;684.03;;;6.90;99.90;;;;;;4979493;28;20451;-83
2022/04/22 03:47:48;;;;;;;723.17;683.53;;;6.80;99.90;;;;;;4983126;28;20486;-83
2022/04/22 03:50:15;;;;;;;716.50;677.27;;;7.00;99.90;;;;;;4982449;28;20459;-83
2022/04/22 03:52:42;;;;;;;693.63;656.77;;;7.00;99.90;;;;;;4982778;28;20455;-83
2022/04/22 03:55:11;;;;;;;702.50;665.30;;;6.90;99.90;;;;;;4983290;28;20489;-83
2022/04/22 04:00:22;;;;;;;726.83;685.03;;;6.70;99.90;;;;;;4981926;28;20442;-83
2022/04/22 04:02:48;;;;;;;754.33;708.93;;;6.60;99.90;;;;;;4983965;28;20462;-82
2022/04/22 04:05:16;;;;;;;757.07;710.77;;;6.50;99.90;;;;;;4983150;28;20450;-84
2022/04/22 04:07:43;;;;;;;755.03;710.37;;;6.50;99.90;;;;;;4984088;28;20478;-84
2022/04/22 04:15:59;;;;;;;776.73;726.40;;;6.30;99.90;;;;;;4984506;28;20794;-83
2022/04/22 04:18:25;;;;;;;764.67;715.47;;;6.40;99.90;;;;;;4983579;28;20477;-84
2022/04/22 04:23:37;;;;;;;746.57;698.27;;;6.40;99.90;;;;;;4983665;28;20446;-84
2022/04/22 04:26:06;;;;;;;720.60;674.60;;;6.30;99.90;;;;;;4983722;28;20458;-83
2022/04/22 04:28:33;;;;;;;771.47;722.57;;;6.40;99.90;;;;;;4983650;28;20465;-84
2022/04/22 04:31:01;;;;;;;782.63;730.27;;;6.20;99.90;;;;;;4984229;28;20459;-83
2022/04/22 04:33:28;;;;;;;790.30;736.93;;;6.20;99.90;;;;;;4984437;28;20459;-83
2022/04/22 04:35:55;;;;;;;795.37;740.27;;;6.20;99.90;;;;;;4984185;28;20493;-83
2022/04/22 04:38:22;;;;;;;807.63;751.47;;;6.20;99.90;;;;;;4982307;28;20459;-84
2022/04/22 04:40:49;;;;;;;809.43;750.57;;;6.10;99.90;;;;;;4984559;28;20470;-83
2022/04/22 04:43:17;;;;;;;803.63;743.83;;;6.10;99.90;;;;;;4983388;28;20455;-83
2022/04/22 04:45:45;;;;;;;803.40;743.20;;;6.10;99.90;;;;;;4984446;28;20531;-83
2022/04/22 04:48:12;;;;;;;805.17;744.13;;;6.10;99.90;;;;;;4983538;28;20489;-84
2022/04/22 04:50:40;;;;;;;796.37;735.97;;;6.10;99.90;;;;;;4983605;28;20537;-83
2022/04/22 04:53:07;;;;;;;809.43;749.23;;;6.20;99.90;;;;;;4983573;28;20493;-84
2022/04/22 04:55:34;;;;;;;799.30;745.20;;;6.30;99.90;;;;;;4983198;28;20478;-84
2022/04/22 04:58:00;;;;;;;799.03;745.17;;;6.50;99.90;;;;;;4981400;28;20987;-83
2022/04/22 05:00:29;;;;;;;797.50;745.03;;;6.60;99.90;;;;;;4983270;28;20455;-83
2022/04/22 05:02:56;;;;;;;769.53;719.57;;;6.50;99.90;;;;;;4983786;28;20467;-83
2022/04/22 05:05:23;;;;;;;780.53;729.50;;;6.60;99.90;;;;;;4983876;28;20451;-83
2022/04/22 05:07:53;;;;;;;769.10;719.37;;;6.60;99.90;;;;;;4981144;28;20471;-83
2022/04/22 05:10:20;;;;;;;778.70;729.50;;;6.80;99.90;;;;;;4982250;28;20959;-83
2022/04/22 05:12:47;;;;;;;752.03;705.10;;;6.70;99.90;;;;;;4983537;28;20462;-84
2022/04/22 05:15:14;;;;;;;779.93;730.17;;;6.90;99.90;;;;;;4982941;28;20490;-83
2022/04/22 05:17:43;;;;;;;759.03;710.77;;;6.90;99.90;;;;;;4982465;28;21003;-83
2022/04/22 05:20:11;;;;;;;765.60;716.97;;;7.20;99.90;;;;;;4981540;28;20462;-83
2022/04/22 05:22:38;;;;;;;700.00;658.43;;;7.10;99.90;;;;;;4982051;28;20944;-83
2022/04/22 05:25:06;;;;;;;540.10;511.53;;;7.40;99.90;;;;;;4981706;28;20492;-83
2022/04/22 05:27:33;;;;;;;372.57;354.57;;;7.70;99.90;;;;;;4983063;28;20475;-83
2022/04/22 05:32:47;;;;;;;171.03;162.70;;;8.30;99.90;;;;;;4980407;28;20463;-83
2022/04/22 05:35:16;;;;;;;98.00;92.07;;;8.60;99.90;;;;;;4980625;28;20853;-81
2022/04/22 05:37:54;;;;;;;49.23;45.30;;;8.80;99.90;;;;;;4981390;28;20479;-84
2022/04/22 05:40:22;;;;;;;37.23;33.63;;;9.00;99.90;;;;;;4979956;28;20465;-82
2022/04/22 05:42:50;;;;;;;33.83;26.10;;;9.20;99.90;;;;;;4980867;28;20814;-83
2022/04/22 05:45:18;;;;;;;31.20;24.10;;;9.40;99.90;;;;;;4979835;28;20921;-84
2022/04/22 05:47:46;;;;;;;33.73;24.73;;;9.70;99.90;;;;;;4980831;28;20494;-84
2022/04/22 05:50:14;;;;;;;25.30;21.10;;;9.70;99.90;;;;;;4980957;28;20466;-84
2022/04/22 05:52:42;;;;;;;27.13;20.73;;;10.00;96.60;;;;;;4978223;28;20455;-83
2022/04/22 05:55:10;;;;;;;28.03;20.90;;;10.30;95.60;;;;;;4980846;28;20483;-83
2022/04/22 05:57:38;;;;;;;29.03;21.20;;;10.30;94.00;;;;;;4980201;28;20485;-83
2022/04/22 06:00:08;;;;;;;28.90;21.37;;;10.40;93.40;;;;;;4977773;28;20459;-83
2022/04/22 06:02:35;;;;;;;33.03;22.03;;;10.40;92.10;;;;;;4977986;28;21196;-82
2022/04/22 06:05:03;;;;;;;28.40;21.53;;;10.20;92.80;;;;;;4978189;28;20458;-84
2022/04/22 06:07:30;;;;;;;27.03;21.40;;;10.10;92.20;;;;;;4976803;28;20475;-83
2022/04/22 06:12:41;;;;;;;29.67;23.07;;;10.20;91.90;;;;;;4978709;28;20887;-84
2022/04/22 06:15:09;;;;;;;34.53;23.47;;;10.00;91.80;;;;;;4979146;28;20479;-83
2022/04/22 06:17:35;;;;;;;33.10;22.87;;;10.10;91.80;;;;;;4977727;28;20885;-83
2022/04/22 06:20:04;;;;;;;28.53;21.50;;;10.00;92.60;;;;;;4977142;28;20455;-84
2022/04/22 06:22:31;;;;;;;30.30;22.57;;;10.10;91.40;;;;;;4979038;28;20474;-84
2022/04/22 06:24:58;;;;;;;33.57;25.70;;;10.10;91.50;;;;;;4978599;28;20490;-84
2022/04/22 06:27:26;;;;;;;30.40;24.03;;;10.20;92.00;;;;;;4978389;28;20841;-83
2022/04/22 06:29:54;;;;;;;26.80;22.60;;;10.20;90.20;;;;;;4979071;28;20455;-84
2022/04/22 06:32:24;;;;;;;32.03;22.53;;;10.20;90.70;;;;;;4980157;28;20459;-85
2022/04/22 06:34:55;;;;;;;29.87;22.37;;;10.30;90.80;;;;;;4979167;28;20541;-83
2022/04/22 06:37:27;;;;;;;29.50;20.47;;;10.50;89.50;;;;;;4978405;28;20477;-85
2022/04/22 06:48:12;;;;;;;24.10;20.53;;;10.70;79.70;;;;;;4978521;28;20845;-84
2022/04/22 06:50:39;;;;;;;26.97;19.70;;;10.90;80.80;;;;;;4979185;28;20462;-85
2022/04/22 06:53:09;;;;;;;29.60;22.60;;;10.90;81.60;;;;;;4978728;28;20451;-84
2022/04/22 06:55:36;;;;;;;28.70;21.77;;;11.00;80.20;;;;;;4980421;28;20482;-84
2022/04/22 06:58:03;;;;;;;30.37;20.57;;;11.10;79.10;;;;;;4981166;28;20475;-85
2022/04/22 07:00:30;;;;;;;28.37;20.47;;;11.20;80.30;;;;;;4980428;28;20462;-85
2022/04/22 07:02:58;;;;;;;31.03;20.70;;;11.30;80.10;;;;;;4978354;28;20469;-83
2022/04/22 07:05:25;;;;;;;28.10;20.70;;;11.40;78.20;;;;;;4977219;28;20457;-84
2022/04/22 07:07:52;;;;;;;29.77;19.73;;;11.50;77.50;;;;;;4976882;28;20847;-84
2022/04/22 07:10:22;;;;;;;22.70;17.97;;;11.50;74.70;;;;;;4976877;28;20463;-84
2022/04/22 07:12:49;;;;;;;24.17;17.97;;;11.70;74.10;;;;;;4975653;28;20447;-84
2022/04/22 07:15:16;;;;;;;27.23;18.00;;;12.00;68.10;;;;;;4976581;28;20487;-84
2022/04/22 07:17:43;;;;;;;28.10;17.13;;;12.20;65.80;;;;;;4977660;28;20482;-84
2022/04/22 07:20:11;;;;;;;22.83;17.20;;;12.40;64.90;;;;;;4977660;28;20490;-84
2022/04/22 07:22:39;;;;;;;25.50;16.67;;;13.00;63.70;;;;;;4980560;28;20465;-84
2022/04/22 07:25:07;;;;;;;25.93;19.17;;;13.00;60.30;;;;;;4980753;28;20451;-84
2022/04/22 07:27:37;;;;;;;23.07;18.90;;;13.20;60.40;;;;;;4980003;28;20474;-84
2022/04/22 07:30:06;;;;;;;28.23;20.10;;;13.20;58.50;;;;;;4979562;28;20971;-83
2022/04/22 07:32:35;;;;;;;25.33;18.87;;;13.20;58.30;;;;;;4979979;28;20794;-84
2022/04/22 07:35:02;;;;;;;27.97;20.13;;;13.30;56.20;;;;;;4980086;28;20455;-84
2022/04/22 07:37:29;;;;;;;23.33;19.83;;;13.20;57.00;;;;;;4979818;28;20478;-84
2022/04/22 07:39:56;;;;;;;27.27;18.93;;;13.30;57.10;;;;;;4979230;28;20462;-83
2022/04/22 07:42:23;;;;;;;23.53;19.23;;;13.30;54.40;;;;;;4980582;28;20469;-84
2022/04/22 07:47:38;;;;;;;21.93;17.77;;;13.40;53.90;;;;;;4980546;28;20863;-84
2022/04/22 07:50:06;;;;;;;23.80;18.20;;;13.50;53.80;;;;;;4978512;28;20458;-84
2022/04/22 07:52:34;;;;;;;23.33;18.40;;;13.40;53.10;;;;;;4979620;28;20847;-84
2022/04/22 07:55:01;;;;;;;22.47;17.50;;;13.20;53.30;;;;;;4978848;28;20880;-85
2022/04/22 07:57:28;;;;;;;31.70;18.30;;;13.00;53.30;;;;;;4979902;28;20837;-85
2022/04/22 07:59:57;;;;;;;24.83;18.50;;;12.60;54.60;;;;;;4979622;28;20455;-85
2022/04/22 08:02:24;;;;;;;23.20;18.10;;;12.60;55.50;;;;;;4979726;28;20455;-84
2022/04/22 08:04:51;;;;;;;27.80;19.00;;;12.50;55.10;;;;;;4978954;28;20455;-83
2022/04/22 08:07:19;;;;;;;24.43;18.60;;;12.50;56.70;;;;;;4979093;28;20474;-83
2022/04/22 08:09:46;;;;;;;22.40;16.97;;;12.30;56.90;;;;;;4977740;28;20539;-82
2022/04/22 08:12:13;;;;;;;23.00;19.20;;;12.50;57.10;;;;;;4975261;28;20906;-83
2022/04/22 08:14:41;;;;;;;21.53;16.67;;;12.60;56.60;;;;;;4976388;28;20459;-83
2022/04/22 08:17:09;;;;;;;24.20;17.37;;;12.70;54.10;;;;;;4975852;28;20487;-84
2022/04/22 08:19:35;;;;;;;24.13;18.47;;;13.30;52.70;;;;;;4974606;28;20482;-83
2022/04/22 08:22:02;;;;;;;23.13;15.77;;;14.20;50.40;;;;;;4976429;28;20455;-83
2022/04/22 08:24:29;;;;;;;22.93;15.60;;;14.60;45.50;;;;;;4975801;28;20550;-83
2022/04/22 08:26:57;;;;;;;23.93;17.40;;;14.60;39.60;;;;;;4975949;28;20527;-83
2022/04/22 08:29:24;;;;;;;18.83;14.77;;;15.20;39.90;;;;;;4974903;28;20842;-83
2022/04/22 08:31:52;;;;;;;19.13;15.20;;;15.50;35.80;;;;;;4974201;28;20472;-83
2022/04/22 08:34:20;;;;;;;17.17;13.87;;;15.90;30.00;;;;;;4975260;28;20463;-84
2022/04/22 08:36:47;;;;;;;21.90;15.70;;;15.90;31.40;;;;;;4975807;28;20485;-84
2022/04/22 08:39:14;;;;;;;21.00;15.13;;;15.40;31.00;;;;;;4974455;28;20517;-83
2022/04/22 08:41:42;;;;;;;18.30;14.63;;;15.10;33.20;;;;;;4975347;28;20461;-84
2022/04/22 08:44:13;;;;;;;16.90;13.47;;;15.30;34.80;;;;;;4975334;28;20476;-84
2022/04/22 08:51:57;;;;;;;17.08;14.35;;;16.50;27.60;;;;;;5000397;28;20532;-86
2022/04/22 09:03:01;;;;;;;13.33;10.37;;;16.80;23.40;;;;;;4998569;28;20462;-84
2022/04/22 09:05:41;;;;;;;14.00;10.60;;;16.80;19.10;;;;;;4998450;28;20439;-86
2022/04/22 09:08:11;;;;;;;15.37;10.07;;;16.50;18.40;;;;;;4998241;28;20478;-85
2022/04/22 09:10:38;;;;;;;16.60;11.97;;;16.40;18.40;;;;;;5000728;28;20461;-85
2022/04/22 09:13:34;;;;;;;13.03;10.63;;;16.20;20.70;;;;;;5001161;28;20465;-84
2022/04/22 09:16:02;;;;;;;15.47;11.60;;;16.50;20.60;;;;;;5001627;28;20457;-84
2022/04/22 09:18:30;;;;;;;14.17;11.70;;;16.40;20.20;;;;;;5000817;28;20476;-84
2022/04/22 09:21:02;;;;;;;15.60;11.10;;;16.20;20.00;;;;;;5001876;28;20553;-85
2022/04/22 09:23:53;;;;;;;12.33;9.47;;;16.30;20.10;;;;;;4996196;28;20455;-84
2022/04/22 09:26:22;;;;;;;12.47;8.20;;;17.20;20.00;;;;;;4995259;28;20487;-85
2022/04/22 09:28:59;;;;;;;10.83;7.70;;;17.40;13.40;;;;;;4999014;28;20567;-84
2022/04/22 09:31:31;;;;;;;16.30;11.50;;;17.80;10.60;;;;;;4997845;28;20540;-87
2022/04/22 09:34:01;;;;;;;14.17;10.77;;;17.20;15.30;;;;;;4998064;28;21000;-85
2022/04/22 09:42:47;;;;;;;14.73;10.43;;;16.50;19.30;;;;;;4981477;28;20811;-85
2022/04/22 09:45:14;;;;;;;18.53;12.47;;;16.50;20.20;;;;;;4957210;29;20485;-85
2022/04/22 09:48:22;;;;;;;15.47;11.67;;;16.20;19.60;;;;;;4998583;28;20540;-85
2022/04/22 09:51:19;;;;;;;13.40;10.40;;;15.90;19.30;;;;;;4999465;28;20480;-86
2022/04/22 09:54:11;;;;;;;16.57;11.33;;;16.00;19.80;;;;;;4999784;28;20469;-85
2022/04/22 09:56:40;;;;;;;17.17;11.10;;;16.10;20.50;;;;;;4993007;28;20460;-84
2022/04/22 09:59:23;;;;;;;12.83;10.07;;;15.90;21.20;;;;;;4998980;28;20498;-85
2022/04/22 10:01:50;;;;;;;16.13;10.20;;;16.20;23.70;;;;;;4999415;28;20467;-85
2022/04/22 10:04:18;;;;;;;14.17;10.93;;;16.90;21.70;;;;;;5000285;28;20455;-86
2022/04/22 10:06:45;;;;;;;11.77;9.20;;;17.20;18.30;;;;;;4999475;28;20492;-85
2022/04/22 10:09:14;;;;;;;12.97;10.20;;;17.00;17.50;;;;;;4999032;28;20461;-85
2022/04/22 10:11:43;;;;;;;16.13;11.43;;;17.00;17.50;;;;;;4999769;28;20958;-85
2022/04/22 10:14:11;;;;;;;14.77;10.37;;;16.80;16.00;;;;;;4999339;28;20460;-85
2022/04/22 10:16:42;;;;;;;13.73;9.77;;;17.60;13.90;;;;;;4998883;28;20455;-85
2022/04/22 10:19:10;;;;;;;13.63;9.23;;;18.40;12.30;;;;;;4999069;28;20569;-85
2022/04/22 10:21:38;;;;;;;14.00;9.80;;;19.00;10.30;;;;;;4999087;28;20451;-85
2022/04/22 10:24:05;;;;;;;13.07;10.17;;;18.30;9.30;;;;;;4996265;28;20449;-85
2022/04/22 10:26:32;;;;;;;13.37;10.70;;;18.80;8.40;;;;;;4997871;28;20478;-86
2022/04/22 10:29:04;;;;;;;13.07;9.97;;;18.40;8.20;;;;;;4998008;28;20483;-85
2022/04/22 10:31:31;;;;;;;13.00;10.60;;;18.40;8.40;;;;;;4997941;28;20919;-87
2022/04/22 10:34:07;;;;;;;12.00;9.40;;;18.70;11.10;;;;;;4998410;28;20451;-85
2022/04/22 10:36:34;;;;;;;12.57;9.80;;;18.20;9.40;;;;;;4998082;28;20452;-85
2022/04/22 10:39:02;;;;;;;11.93;9.82;;;18.10;6.40;;;;;;4995092;28;20461;-86
2022/04/22 10:42:14;;;;;;;11.70;9.10;;;18.00;8.30;;;;;;4993281;28;20679;-87
2022/04/22 10:48:19;;;;;;;11.33;9.00;;;17.90;5.00;;;;;;4993226;28;20480;-87
2022/04/22 10:50:57;;;;;;;20.50;10.50;;;18.70;4.30;;;;;;4998550;28;20455;-86
2022/04/22 10:53:26;;;;;;;11.83;9.23;;;19.10;2.40;;;;;;4997908;28;20484;-85
2022/04/22 10:55:53;;;;;;;12.73;9.63;;;20.30;1.50;;;;;;4997716;28;20841;-85
2022/04/22 10:58:27;;;;;;;11.17;9.40;;;20.70;1.00;;;;;;4997388;28;20481;-86
2022/04/22 11:00:57;;;;;;;13.37;10.27;;;19.50;1.00;;;;;;4995852;28;20472;-84
2022/04/22 11:03:27;;;;;;;16.73;11.33;;;19.30;3.80;;;;;;4998609;28;20452;-84
2022/04/22 11:06:03;;;;;;;13.27;9.70;;;19.30;1.10;;;;;;4995772;28;20547;-85
2022/04/22 11:08:31;;;;;;;13.17;10.27;;;19.20;4.00;;;;;;4993127;28;20284;-86
2022/04/22 11:11:19;;;;;;;12.13;8.47;;;19.80;1.30;;;;;;4993561;28;20461;-86
2022/04/22 11:17:28;;;;;;;12.57;8.97;;;19.60;1.00;;;;;;4985196;28;20440;-87
2022/04/22 11:19:59;;;;;;;11.07;8.87;;;19.60;2.80;;;;;;4981908;28;20460;-86
2022/04/22 11:22:53;;;;;;;11.07;9.20;;;18.80;3.70;;;;;;4993202;28;20482;-86
2022/04/22 11:25:24;;;;;;;13.97;9.60;;;18.20;3.20;;;;;;4994948;28;20447;-83
2022/04/22 11:27:53;;;;;;;9.60;7.90;;;18.60;3.50;;;;;;4995734;28;20493;-84
2022/04/22 11:30:48;;;;;;;;;;;;;;;;;;;;;
2022/04/22 12:05:57;;;;;;;12.10;8.10;;;23.00;1.00;;;;;;4994345;28;20933;-86
2022/04/22 12:08:24;;;;;;;10.73;7.80;;;24.00;1.00;;;;;;4995557;28;20485;-86
2022/04/22 12:10:51;;;;;;;10.10;7.80;;;23.70;1.00;;;;;;4996075;28;20475;-85
2022/04/22 12:13:18;;;;;;;9.97;7.23;;;22.00;1.00;;;;;;4995677;28;20596;-88
2022/04/22 12:15:48;;;;;;;9.10;7.50;;;20.50;1.00;;;;;;4997160;28;20463;-82
2022/04/22 12:18:32;;;;;;;10.17;7.43;;;19.80;1.00;;;;;;4995803;28;20475;-84
2022/04/22 12:21:00;;;;;;;9.17;7.40;;;20.40;1.00;;;;;;4997933;28;20456;-85
2022/04/22 12:23:38;;;;;;;11.23;8.93;;;21.10;1.00;;;;;;4996957;28;20535;-85
2022/04/22 12:26:05;;;;;;;9.20;7.07;;;21.60;1.00;;;;;;4996320;28;20512;-85
2022/04/22 12:28:32;;;;;;;9.93;7.90;;;21.90;1.00;;;;;;4995632;28;20475;-83
2022/04/22 12:30:59;;;;;;;8.37;6.70;;;23.30;1.00;;;;;;4996432;28;20464;-85
2022/04/22 12:33:26;;;;;;;11.17;9.17;;;22.90;1.00;;;;;;4995947;28;20555;-85
2022/04/22 12:36:16;;;;;;;10.30;7.43;;;21.80;1.00;;;;;;4996119;28;20463;-85
2022/04/22 12:38:44;;;;;;;9.63;7.43;;;21.20;1.00;;;;;;4995293;28;20483;-84
2022/04/22 12:41:22;;;;;;;11.13;7.60;;;21.20;1.00;;;;;;4996042;28;20966;-85
2022/04/22 12:43:51;;;;;;;10.90;8.67;;;20.10;1.00;;;;;;4996421;28;20837;-85
2022/04/22 12:52:10;;;;;;;9.77;7.07;;;21.00;1.00;;;;;;4996805;28;20496;-81
2022/04/22 12:54:37;;;;;;;9.60;6.80;;;21.30;1.00;;;;;;4996707;28;20482;-85
2022/04/22 12:57:05;;;;;;;9.60;7.53;;;22.30;1.00;;;;;;4997822;28;20802;-86
2022/04/22 12:59:46;;;;;;;10.77;7.57;;;22.10;1.00;;;;;;4996437;28;20459;-86
2022/04/22 13:02:28;;;;;;;9.90;6.60;;;22.30;1.00;;;;;;4999789;28;20456;-85
2022/04/22 13:04:57;;;;;;;12.00;7.83;;;22.40;1.00;;;;;;4998642;28;20454;-84
2022/04/22 13:07:25;;;;;;;10.90;8.60;;;21.90;1.00;;;;;;4995753;28;20492;-85
2022/04/22 13:09:52;;;;;;;11.70;7.80;;;21.30;1.00;;;;;;4996938;28;20463;-85
2022/04/22 13:12:48;;;;;;;11.23;8.17;;;20.40;1.00;;;;;;4997301;28;20456;-86
2022/04/22 13:15:17;;;;;;;9.70;7.00;;;20.70;1.00;;;;;;4984107;28;20460;-85
2022/04/22 13:17:45;;;;;;;9.70;7.50;;;20.70;1.00;;;;;;4996788;28;21112;-86
2022/04/22 13:20:14;;;;;;;10.20;7.90;;;20.60;1.00;;;;;;4997594;28;20841;-86
2022/04/22 13:23:07;;;;;;;14.43;9.63;;;20.60;1.00;;;;;;4999885;28;20604;-85
2022/04/22 13:25:34;;;;;;;11.20;8.43;;;20.30;1.00;;;;;;4999932;28;20446;-85
2022/04/22 13:28:01;;;;;;;14.70;8.47;;;20.40;1.00;;;;;;4999741;28;20483;-85
2022/04/22 13:30:28;;;;;;;11.40;8.60;;;19.90;1.00;;;;;;5000308;28;20462;-85
2022/04/22 13:32:55;;;;;;;10.73;7.63;;;19.40;2.40;;;;;;4998442;28;20449;-85
2022/04/22 13:35:23;;;;;;;11.43;8.33;;;18.90;2.00;;;;;;5000473;28;21148;-85
2022/04/22 13:37:50;;;;;;;11.33;8.63;;;18.60;3.30;;;;;;4997912;28;20495;-85
2022/04/22 13:40:19;;;;;;;11.80;7.10;;;18.80;3.70;;;;;;4998153;28;20460;-85
2022/04/22 13:42:46;;;;;;;16.00;10.20;;;18.60;3.60;;;;;;4998801;28;20954;-85
2022/04/22 13:58:42;;;;;;;11.13;8.93;;;20.70;1.50;;;;;;5007555;28;20473;-84
2022/04/22 14:07:52;;;;;;;12.00;9.60;;;20.20;1.00;;;;;;4953318;28;20489;-85
2022/04/22 14:10:20;;;;;;;11.43;8.77;;;20.20;1.00;;;;;;4977512;28;20888;-85
2022/04/22 14:12:47;;;;;;;14.63;8.97;;;20.50;1.00;;;;;;5016089;28;20600;-84
2022/04/22 14:15:14;;;;;;;13.70;10.27;;;21.00;1.00;;;;;;5015183;28;20462;-84
2022/04/22 14:17:41;;;;;;;10.10;7.00;;;20.80;1.00;;;;;;5016037;28;20556;-84
2022/04/22 14:20:09;;;;;;;11.63;8.63;;;20.20;1.00;;;;;;5015867;28;20455;-85
2022/04/22 14:22:36;;;;;;;14.83;9.13;;;20.40;1.00;;;;;;5015142;28;20458;-84
2022/04/22 14:25:06;;;;;;;11.87;8.63;;;20.20;1.00;;;;;;5014923;28;20834;-85
2022/04/22 14:27:33;;;;;;;12.73;9.30;;;19.90;1.00;;;;;;5015274;28;20474;-84
2022/04/22 14:30:00;;;;;;;11.60;8.60;;;21.10;1.00;;;;;;5014542;28;20463;-85
2022/04/22 14:32:26;;;;;;;12.30;9.80;;;21.00;1.00;;;;;;5016045;28;20999;-84
2022/04/22 14:34:55;;;;;;;11.30;8.93;;;21.10;1.00;;;;;;5016446;28;20466;-83
2022/04/22 14:37:21;;;;;;;11.67;8.77;;;20.90;1.00;;;;;;5014375;28;20543;-85
2022/04/22 14:39:49;;;;;;;15.93;9.90;;;20.00;1.00;;;;;;5014858;28;20449;-85
2022/04/22 14:42:18;;;;;;;11.70;8.13;;;19.40;1.00;;;;;;5014897;28;20448;-85
2022/04/22 14:44:45;;;;;;;15.03;9.47;;;19.20;3.30;;;;;;5014100;28;20514;-85